sensor_id;sensor_type;location;lat;lon;timestamp;temperature;humidity
30694;DHT22;17446;48.022;-1.740;2022-12-29T00:02:10;12.10;99.90
30694;DHT22;17446;48.022;-1.740;2022-12-29T00:04:36;12.10;99.90
30694;DHT22;17446;48.022;-1.740;2022-12-29T00:07:02;12.10;99.90
30694;DHT22;17446;48.022;-1.740;2022-12-29T00:09:30;12.10;99.90
30694;DHT22;17446;48.022;-1.740;2022-12-29T00:11:56;12.10;99.90
30694;DHT22;17446;48.022;-1.740;2022-12-29T00:14:22;12.10;99.90
30694;DHT22;17446;48.022;-1.740;2022-12-29T00:17:06;12.10;99.90
30694;DHT22;17446;48.022;-1.740;2022-12-29T00:19:32;12.10;99.90
30694;DHT22;17446;48.022;-1.740;2022-12-29T00:22:16;12.10;99.90
30694;DHT22;17446;48.022;-1.740;2022-12-29T00:25:01;12.10;99.90
30694;DHT22;17446;48.022;-1.740;2022-12-29T00:27:28;12.10;99.90
30694;DHT22;17446;48.022;-1.740;2022-12-29T00:30:17;12.10;99.90
30694;DHT22;17446;48.022;-1.740;2022-12-29T00:36:00;12.10;99.90
30694;DHT22;17446;48.022;-1.740;2022-12-29T00:38:28;12.10;99.90
30694;DHT22;17446;48.022;-1.740;2022-12-29T00:41:13;12.10;99.90
30694;DHT22;17446;48.022;-1.740;2022-12-29T00:43:57;12.10;99.90
30694;DHT22;17446;48.022;-1.740;2022-12-29T00:46:36;12.10;99.90
30694;DHT22;17446;48.022;-1.740;2022-12-29T00:49:02;12.10;99.90
30694;DHT22;17446;48.022;-1.740;2022-12-29T00:51:48;12.10;99.90
30694;DHT22;17446;48.022;-1.740;2022-12-29T00:54:14;12.10;99.90
30694;DHT22;17446;48.022;-1.740;2022-12-29T00:56:39;12.10;99.90
30694;DHT22;17446;48.022;-1.740;2022-12-29T00:59:07;12.10;99.90
30694;DHT22;17446;48.022;-1.740;2022-12-29T01:01:34;12.10;99.90
30694;DHT22;17446;48.022;-1.740;2022-12-29T01:03:59;12.10;99.90
30694;DHT22;17446;48.022;-1.740;2022-12-29T01:06:25;12.10;99.90
30694;DHT22;17446;48.022;-1.740;2022-12-29T01:08:51;12.10;99.90
30694;DHT22;17446;48.022;-1.740;2022-12-29T01:11:36;12.00;99.90
30694;DHT22;17446;48.022;-1.740;2022-12-29T01:14:02;12.00;99.90
30694;DHT22;17446;48.022;-1.740;2022-12-29T01:16:28;12.00;99.90
30694;DHT22;17446;48.022;-1.740;2022-12-29T01:18:54;12.00;99.90
30694;DHT22;17446;48.022;-1.740;2022-12-29T01:21:19;12.00;99.90
30694;DHT22;17446;48.022;-1.740;2022-12-29T01:23:45;12.00;99.90
30694;DHT22;17446;48.022;-1.740;2022-12-29T01:26:12;12.00;99.90
30694;DHT22;17446;48.022;-1.740;2022-12-29T01:28:38;11.90;99.90
30694;DHT22;17446;48.022;-1.740;2022-12-29T01:31:06;11.90;99.90
30694;DHT22;17446;48.022;-1.740;2022-12-29T01:33:32;11.90;99.90
30694;DHT22;17446;48.022;-1.740;2022-12-29T01:36:04;11.90;99.90
30694;DHT22;17446;48.022;-1.740;2022-12-29T01:38:31;11.90;99.90
30694;DHT22;17446;48.022;-1.740;2022-12-29T01:40:57;11.90;99.90
30694;DHT22;17446;48.022;-1.740;2022-12-29T01:46:04;11.90;99.90
30694;DHT22;17446;48.022;-1.740;2022-12-29T01:48:32;11.80;99.90
30694;DHT22;17446;48.022;-1.740;2022-12-29T01:50:57;11.80;99.90
30694;DHT22;17446;48.022;-1.740;2022-12-29T01:53:31;11.80;99.90
30694;DHT22;17446;48.022;-1.740;2022-12-29T01:56:03;11.80;99.90
30694;DHT22;17446;48.022;-1.740;2022-12-29T01:58:32;11.80;99.90
30694;DHT22;17446;48.022;-1.740;2022-12-29T02:00:59;11.80;99.90
30694;DHT22;17446;48.022;-1.740;2022-12-29T02:03:25;11.80;99.90
30694;DHT22;17446;48.022;-1.740;2022-12-29T02:06:06;11.80;99.90
30694;DHT22;17446;48.022;-1.740;2022-12-29T02:08:34;11.70;99.90
30694;DHT22;17446;48.022;-1.740;2022-12-29T02:11:00;11.80;99.90
30694;DHT22;17446;48.022;-1.740;2022-12-29T02:13:27;11.80;99.90
30694;DHT22;17446;48.022;-1.740;2022-12-29T02:22:06;11.80;99.90
30694;DHT22;17446;48.022;-1.740;2022-12-29T02:35:30;11.80;99.90
30694;DHT22;17446;48.022;-1.740;2022-12-29T02:38:01;11.80;99.90
30694;DHT22;17446;48.022;-1.740;2022-12-29T02:40:43;11.80;99.90
30694;DHT22;17446;48.022;-1.740;2022-12-29T02:43:35;11.80;99.90
30694;DHT22;17446;48.022;-1.740;2022-12-29T02:49:09;11.80;99.90
30694;DHT22;17446;48.022;-1.740;2022-12-29T02:51:39;11.80;99.90
30694;DHT22;17446;48.022;-1.740;2022-12-29T02:54:05;11.80;99.90
30694;DHT22;17446;48.022;-1.740;2022-12-29T02:56:50;11.80;99.90
30694;DHT22;17446;48.022;-1.740;2022-12-29T02:59:16;11.80;99.90
30694;DHT22;17446;48.022;-1.740;2022-12-29T03:15:57;11.70;99.90
30694;DHT22;17446;48.022;-1.740;2022-12-29T03:18:44;11.70;99.90
30694;DHT22;17446;48.022;-1.740;2022-12-29T03:23:41;11.60;99.90
30694;DHT22;17446;48.022;-1.740;2022-12-29T03:26:10;11.60;99.90
30694;DHT22;17446;48.022;-1.740;2022-12-29T03:28:39;11.60;99.90
30694;DHT22;17446;48.022;-1.740;2022-12-29T03:31:08;11.60;99.90
30694;DHT22;17446;48.022;-1.740;2022-12-29T03:33:35;11.60;99.90
30694;DHT22;17446;48.022;-1.740;2022-12-29T03:36:06;11.60;99.90
30694;DHT22;17446;48.022;-1.740;2022-12-29T03:38:39;11.60;99.90
30694;DHT22;17446;48.022;-1.740;2022-12-29T03:41:10;11.50;99.90
30694;DHT22;17446;48.022;-1.740;2022-12-29T03:43:36;11.50;99.90
30694;DHT22;17446;48.022;-1.740;2022-12-29T03:46:02;11.50;99.90
30694;DHT22;17446;48.022;-1.740;2022-12-29T03:48:28;11.50;99.90
30694;DHT22;17446;48.022;-1.740;2022-12-29T03:50:53;11.50;99.90
30694;DHT22;17446;48.022;-1.740;2022-12-29T03:53:19;11.50;99.90
30694;DHT22;17446;48.022;-1.740;2022-12-29T03:55:45;11.50;99.90
30694;DHT22;17446;48.022;-1.740;2022-12-29T03:58:11;11.40;99.90
30694;DHT22;17446;48.022;-1.740;2022-12-29T04:00:36;11.40;99.90
30694;DHT22;17446;48.022;-1.740;2022-12-29T04:03:02;11.50;99.90
30694;DHT22;17446;48.022;-1.740;2022-12-29T04:05:28;11.40;99.90
30694;DHT22;17446;48.022;-1.740;2022-12-29T04:07:53;11.40;99.90
30694;DHT22;17446;48.022;-1.740;2022-12-29T04:10:19;11.40;99.90
30694;DHT22;17446;48.022;-1.740;2022-12-29T04:12:44;11.40;99.90
30694;DHT22;17446;48.022;-1.740;2022-12-29T04:15:11;11.40;99.90
30694;DHT22;17446;48.022;-1.740;2022-12-29T04:17:37;11.40;99.90
30694;DHT22;17446;48.022;-1.740;2022-12-29T04:20:03;11.40;99.90
30694;DHT22;17446;48.022;-1.740;2022-12-29T04:22:48;11.40;99.90
30694;DHT22;17446;48.022;-1.740;2022-12-29T04:25:13;11.30;99.90
30694;DHT22;17446;48.022;-1.740;2022-12-29T04:27:39;11.30;99.90
30694;DHT22;17446;48.022;-1.740;2022-12-29T04:30:05;11.40;99.90
30694;DHT22;17446;48.022;-1.740;2022-12-29T04:32:31;11.40;99.90
30694;DHT22;17446;48.022;-1.740;2022-12-29T04:34:56;11.30;99.90
30694;DHT22;17446;48.022;-1.740;2022-12-29T04:37:22;11.30;99.90
30694;DHT22;17446;48.022;-1.740;2022-12-29T04:39:48;11.30;99.90
30694;DHT22;17446;48.022;-1.740;2022-12-29T04:42:13;11.20;99.90
30694;DHT22;17446;48.022;-1.740;2022-12-29T04:44:39;11.20;99.90
30694;DHT22;17446;48.022;-1.740;2022-12-29T04:47:04;11.20;99.90
30694;DHT22;17446;48.022;-1.740;2022-12-29T04:49:30;11.20;99.90
30694;DHT22;17446;48.022;-1.740;2022-12-29T04:51:56;11.20;99.90
30694;DHT22;17446;48.022;-1.740;2022-12-29T04:54:21;11.20;99.90
30694;DHT22;17446;48.022;-1.740;2022-12-29T04:56:47;11.20;99.90
30694;DHT22;17446;48.022;-1.740;2022-12-29T04:59:12;11.20;99.90
30694;DHT22;17446;48.022;-1.740;2022-12-29T05:01:38;11.10;99.90
30694;DHT22;17446;48.022;-1.740;2022-12-29T05:04:04;11.10;99.90
30694;DHT22;17446;48.022;-1.740;2022-12-29T05:06:29;11.10;99.90
30694;DHT22;17446;48.022;-1.740;2022-12-29T05:08:55;11.00;99.90
30694;DHT22;17446;48.022;-1.740;2022-12-29T05:11:20;11.00;99.90
30694;DHT22;17446;48.022;-1.740;2022-12-29T05:13:46;11.00;99.90
30694;DHT22;17446;48.022;-1.740;2022-12-29T05:16:12;11.00;99.90
30694;DHT22;17446;48.022;-1.740;2022-12-29T05:18:38;11.00;99.90
30694;DHT22;17446;48.022;-1.740;2022-12-29T05:21:03;11.00;99.90
30694;DHT22;17446;48.022;-1.740;2022-12-29T05:23:29;11.00;99.90
30694;DHT22;17446;48.022;-1.740;2022-12-29T05:25:55;11.00;99.90
30694;DHT22;17446;48.022;-1.740;2022-12-29T05:28:20;10.90;99.90
30694;DHT22;17446;48.022;-1.740;2022-12-29T05:30:50;10.90;99.90
30694;DHT22;17446;48.022;-1.740;2022-12-29T05:33:18;10.90;99.90
30694;DHT22;17446;48.022;-1.740;2022-12-29T05:35:44;10.90;99.90
30694;DHT22;17446;48.022;-1.740;2022-12-29T05:38:09;10.90;99.90
30694;DHT22;17446;48.022;-1.740;2022-12-29T05:40:35;10.80;99.90
30694;DHT22;17446;48.022;-1.740;2022-12-29T05:43:01;10.80;99.90
30694;DHT22;17446;48.022;-1.740;2022-12-29T05:45:26;10.80;99.90
30694;DHT22;17446;48.022;-1.740;2022-12-29T05:47:52;10.80;99.90
30694;DHT22;17446;48.022;-1.740;2022-12-29T05:50:18;10.80;99.90
30694;DHT22;17446;48.022;-1.740;2022-12-29T05:52:43;10.80;99.90
30694;DHT22;17446;48.022;-1.740;2022-12-29T05:55:09;10.70;99.90
30694;DHT22;17446;48.022;-1.740;2022-12-29T05:57:36;10.70;99.90
30694;DHT22;17446;48.022;-1.740;2022-12-29T06:00:03;10.70;99.90
30694;DHT22;17446;48.022;-1.740;2022-12-29T06:02:29;10.70;99.90
30694;DHT22;17446;48.022;-1.740;2022-12-29T06:04:54;10.70;99.90
30694;DHT22;17446;48.022;-1.740;2022-12-29T06:07:20;10.60;99.90
30694;DHT22;17446;48.022;-1.740;2022-12-29T06:09:45;10.60;99.90
30694;DHT22;17446;48.022;-1.740;2022-12-29T06:12:11;10.60;99.90
30694;DHT22;17446;48.022;-1.740;2022-12-29T06:14:36;10.60;99.90
30694;DHT22;17446;48.022;-1.740;2022-12-29T06:17:02;10.50;99.90
30694;DHT22;17446;48.022;-1.740;2022-12-29T06:19:28;10.50;99.90
30694;DHT22;17446;48.022;-1.740;2022-12-29T06:21:53;10.50;99.90
30694;DHT22;17446;48.022;-1.740;2022-12-29T06:24:20;10.40;99.90
30694;DHT22;17446;48.022;-1.740;2022-12-29T06:26:46;10.50;99.90
30694;DHT22;17446;48.022;-1.740;2022-12-29T06:29:11;10.40;99.90
30694;DHT22;17446;48.022;-1.740;2022-12-29T06:31:38;10.40;99.90
30694;DHT22;17446;48.022;-1.740;2022-12-29T06:34:04;10.40;99.90
30694;DHT22;17446;48.022;-1.740;2022-12-29T06:36:29;10.40;99.90
30694;DHT22;17446;48.022;-1.740;2022-12-29T06:38:55;10.40;99.90
30694;DHT22;17446;48.022;-1.740;2022-12-29T06:41:21;10.40;99.90
30694;DHT22;17446;48.022;-1.740;2022-12-29T06:43:46;10.30;99.90
30694;DHT22;17446;48.022;-1.740;2022-12-29T06:46:12;10.30;99.90
30694;DHT22;17446;48.022;-1.740;2022-12-29T06:48:37;10.30;99.90
30694;DHT22;17446;48.022;-1.740;2022-12-29T06:51:03;10.30;99.90
30694;DHT22;17446;48.022;-1.740;2022-12-29T06:53:29;10.20;99.90
30694;DHT22;17446;48.022;-1.740;2022-12-29T06:55:54;10.20;99.90
30694;DHT22;17446;48.022;-1.740;2022-12-29T06:58:21;10.20;99.90
30694;DHT22;17446;48.022;-1.740;2022-12-29T07:00:47;10.20;99.90
30694;DHT22;17446;48.022;-1.740;2022-12-29T07:03:13;10.20;99.90
30694;DHT22;17446;48.022;-1.740;2022-12-29T07:05:39;10.10;99.90
30694;DHT22;17446;48.022;-1.740;2022-12-29T07:08:04;10.10;99.90
30694;DHT22;17446;48.022;-1.740;2022-12-29T07:10:31;10.10;99.90
30694;DHT22;17446;48.022;-1.740;2022-12-29T07:12:56;10.20;99.90
30694;DHT22;17446;48.022;-1.740;2022-12-29T07:15:22;10.20;99.90
30694;DHT22;17446;48.022;-1.740;2022-12-29T07:17:48;10.20;99.90
30694;DHT22;17446;48.022;-1.740;2022-12-29T07:20:15;10.30;99.90
30694;DHT22;17446;48.022;-1.740;2022-12-29T07:22:41;10.30;99.90
30694;DHT22;17446;48.022;-1.740;2022-12-29T07:25:07;10.30;99.90
30694;DHT22;17446;48.022;-1.740;2022-12-29T07:27:33;10.20;99.90
30694;DHT22;17446;48.022;-1.740;2022-12-29T07:29:58;10.30;99.90
30694;DHT22;17446;48.022;-1.740;2022-12-29T07:32:24;10.20;99.90
30694;DHT22;17446;48.022;-1.740;2022-12-29T07:34:49;10.20;99.90
30694;DHT22;17446;48.022;-1.740;2022-12-29T07:37:15;10.20;99.90
30694;DHT22;17446;48.022;-1.740;2022-12-29T07:39:41;10.10;99.90
30694;DHT22;17446;48.022;-1.740;2022-12-29T07:42:06;10.10;99.90
30694;DHT22;17446;48.022;-1.740;2022-12-29T07:44:32;10.10;99.90
30694;DHT22;17446;48.022;-1.740;2022-12-29T07:46:58;10.00;99.90
30694;DHT22;17446;48.022;-1.740;2022-12-29T07:49:23;10.00;99.90
30694;DHT22;17446;48.022;-1.740;2022-12-29T07:51:49;10.00;99.90
30694;DHT22;17446;48.022;-1.740;2022-12-29T07:54:15;10.00;99.90
30694;DHT22;17446;48.022;-1.740;2022-12-29T07:56:43;10.00;99.90
30694;DHT22;17446;48.022;-1.740;2022-12-29T07:59:09;9.90;99.90
30694;DHT22;17446;48.022;-1.740;2022-12-29T08:01:35;9.90;99.90
30694;DHT22;17446;48.022;-1.740;2022-12-29T08:04:00;9.90;99.90
30694;DHT22;17446;48.022;-1.740;2022-12-29T08:06:26;9.90;99.90
30694;DHT22;17446;48.022;-1.740;2022-12-29T08:08:51;9.90;99.90
30694;DHT22;17446;48.022;-1.740;2022-12-29T08:11:17;9.90;99.90
30694;DHT22;17446;48.022;-1.740;2022-12-29T08:13:43;9.90;99.90
30694;DHT22;17446;48.022;-1.740;2022-12-29T08:16:08;9.80;99.90
30694;DHT22;17446;48.022;-1.740;2022-12-29T08:18:34;9.90;99.90
30694;DHT22;17446;48.022;-1.740;2022-12-29T08:21:03;9.90;99.90
30694;DHT22;17446;48.022;-1.740;2022-12-29T08:23:29;9.90;99.90
30694;DHT22;17446;48.022;-1.740;2022-12-29T08:25:59;9.90;99.90
30694;DHT22;17446;48.022;-1.740;2022-12-29T08:28:25;9.90;99.90
30694;DHT22;17446;48.022;-1.740;2022-12-29T08:30:51;9.90;99.90
30694;DHT22;17446;48.022;-1.740;2022-12-29T08:33:17;10.00;99.90
30694;DHT22;17446;48.022;-1.740;2022-12-29T08:35:43;10.10;99.90
30694;DHT22;17446;48.022;-1.740;2022-12-29T08:38:08;10.10;99.90
30694;DHT22;17446;48.022;-1.740;2022-12-29T08:40:36;10.10;99.90
30694;DHT22;17446;48.022;-1.740;2022-12-29T08:43:02;10.10;99.90
30694;DHT22;17446;48.022;-1.740;2022-12-29T08:45:28;10.10;99.90
30694;DHT22;17446;48.022;-1.740;2022-12-29T08:47:53;10.10;99.90
30694;DHT22;17446;48.022;-1.740;2022-12-29T08:50:19;10.10;99.90
30694;DHT22;17446;48.022;-1.740;2022-12-29T08:52:44;10.10;99.90
30694;DHT22;17446;48.022;-1.740;2022-12-29T08:55:10;10.10;99.90
30694;DHT22;17446;48.022;-1.740;2022-12-29T08:57:36;10.10;99.90
30694;DHT22;17446;48.022;-1.740;2022-12-29T09:00:03;10.10;99.90
30694;DHT22;17446;48.022;-1.740;2022-12-29T09:02:29;10.10;99.90
30694;DHT22;17446;48.022;-1.740;2022-12-29T09:04:54;10.20;99.90
30694;DHT22;17446;48.022;-1.740;2022-12-29T09:07:22;10.20;99.90
30694;DHT22;17446;48.022;-1.740;2022-12-29T09:09:48;10.10;99.90
30694;DHT22;17446;48.022;-1.740;2022-12-29T09:12:15;10.20;99.90
30694;DHT22;17446;48.022;-1.740;2022-12-29T09:14:40;10.20;99.90
30694;DHT22;17446;48.022;-1.740;2022-12-29T09:17:08;10.20;99.90
30694;DHT22;17446;48.022;-1.740;2022-12-29T09:19:52;10.20;99.90
30694;DHT22;17446;48.022;-1.740;2022-12-29T09:22:18;10.20;99.90
30694;DHT22;17446;48.022;-1.740;2022-12-29T09:24:43;10.20;99.90
30694;DHT22;17446;48.022;-1.740;2022-12-29T09:27:09;10.20;99.90
30694;DHT22;17446;48.022;-1.740;2022-12-29T09:29:35;10.20;99.90
30694;DHT22;17446;48.022;-1.740;2022-12-29T09:32:00;10.20;99.90
30694;DHT22;17446;48.022;-1.740;2022-12-29T09:34:26;10.20;99.90
30694;DHT22;17446;48.022;-1.740;2022-12-29T09:36:51;10.30;99.90
30694;DHT22;17446;48.022;-1.740;2022-12-29T09:39:17;10.30;99.90
30694;DHT22;17446;48.022;-1.740;2022-12-29T09:42:01;10.40;99.90
30694;DHT22;17446;48.022;-1.740;2022-12-29T09:46:59;10.50;99.90
30694;DHT22;17446;48.022;-1.740;2022-12-29T09:49:30;10.50;99.90
30694;DHT22;17446;48.022;-1.740;2022-12-29T09:52:04;10.60;99.90
30694;DHT22;17446;48.022;-1.740;2022-12-29T09:54:39;10.60;99.90
30694;DHT22;17446;48.022;-1.740;2022-12-29T09:57:20;10.60;99.90
30694;DHT22;17446;48.022;-1.740;2022-12-29T09:59:49;10.70;99.90
30694;DHT22;17446;48.022;-1.740;2022-12-29T10:02:52;10.70;99.90
30694;DHT22;17446;48.022;-1.740;2022-12-29T10:11:20;10.80;99.90
30694;DHT22;17446;48.022;-1.740;2022-12-29T10:23:56;11.00;99.90
30694;DHT22;17446;48.022;-1.740;2022-12-29T10:26:33;11.00;99.90
30694;DHT22;17446;48.022;-1.740;2022-12-29T10:29:06;11.10;99.90
30694;DHT22;17446;48.022;-1.740;2022-12-29T10:31:36;11.10;99.90
30694;DHT22;17446;48.022;-1.740;2022-12-29T10:34:10;11.10;99.90
30694;DHT22;17446;48.022;-1.740;2022-12-29T10:36:42;11.10;99.90
30694;DHT22;17446;48.022;-1.740;2022-12-29T10:39:29;11.10;99.90
30694;DHT22;17446;48.022;-1.740;2022-12-29T10:42:04;11.10;99.90
30694;DHT22;17446;48.022;-1.740;2022-12-29T10:44:33;11.20;99.90
30694;DHT22;17446;48.022;-1.740;2022-12-29T10:47:03;11.20;99.90
30694;DHT22;17446;48.022;-1.740;2022-12-29T10:49:31;11.30;99.90
30694;DHT22;17446;48.022;-1.740;2022-12-29T10:52:00;11.30;99.90
30694;DHT22;17446;48.022;-1.740;2022-12-29T10:54:29;11.30;99.90
30694;DHT22;17446;48.022;-1.740;2022-12-29T10:57:05;11.40;99.90
30694;DHT22;17446;48.022;-1.740;2022-12-29T10:59:33;11.40;99.90
30694;DHT22;17446;48.022;-1.740;2022-12-29T11:07:38;11.60;99.90
30694;DHT22;17446;48.022;-1.740;2022-12-29T11:10:20;11.60;99.90
30694;DHT22;17446;48.022;-1.740;2022-12-29T11:13:16;11.60;99.90
30694;DHT22;17446;48.022;-1.740;2022-12-29T11:15:48;11.70;99.90
30694;DHT22;17446;48.022;-1.740;2022-12-29T11:18:35;11.70;99.90
30694;DHT22;17446;48.022;-1.740;2022-12-29T11:21:35;11.80;99.90
30694;DHT22;17446;48.022;-1.740;2022-12-29T11:24:28;11.80;99.90
30694;DHT22;17446;48.022;-1.740;2022-12-29T11:26:56;11.90;99.90
30694;DHT22;17446;48.022;-1.740;2022-12-29T11:29:38;11.90;99.90
30694;DHT22;17446;48.022;-1.740;2022-12-29T11:32:13;11.90;99.90
30694;DHT22;17446;48.022;-1.740;2022-12-29T11:34:42;12.00;99.90
30694;DHT22;17446;48.022;-1.740;2022-12-29T11:37:31;12.00;99.90
30694;DHT22;17446;48.022;-1.740;2022-12-29T11:40:05;12.00;99.90
30694;DHT22;17446;48.022;-1.740;2022-12-29T11:42:40;12.10;99.90
30694;DHT22;17446;48.022;-1.740;2022-12-29T11:45:27;12.10;99.90
30694;DHT22;17446;48.022;-1.740;2022-12-29T11:48:06;12.10;99.90
30694;DHT22;17446;48.022;-1.740;2022-12-29T11:50:34;12.20;99.90
30694;DHT22;17446;48.022;-1.740;2022-12-29T11:53:13;12.20;99.90
30694;DHT22;17446;48.022;-1.740;2022-12-29T11:56:04;12.20;99.90
30694;DHT22;17446;48.022;-1.740;2022-12-29T11:58:33;12.30;99.90
30694;DHT22;17446;48.022;-1.740;2022-12-29T12:01:09;12.30;99.90
30694;DHT22;17446;48.022;-1.740;2022-12-29T12:03:39;12.30;99.90
30694;DHT22;17446;48.022;-1.740;2022-12-29T12:06:11;12.40;99.90
30694;DHT22;17446;48.022;-1.740;2022-12-29T12:08:53;12.40;99.90
30694;DHT22;17446;48.022;-1.740;2022-12-29T12:13:58;12.50;99.90
30694;DHT22;17446;48.022;-1.740;2022-12-29T12:16:31;12.50;99.90
30694;DHT22;17446;48.022;-1.740;2022-12-29T12:19:04;12.50;99.90
30694;DHT22;17446;48.022;-1.740;2022-12-29T12:21:38;12.60;99.90
30694;DHT22;17446;48.022;-1.740;2022-12-29T12:26:58;12.70;99.90
30694;DHT22;17446;48.022;-1.740;2022-12-29T12:29:45;12.70;99.90
30694;DHT22;17446;48.022;-1.740;2022-12-29T12:57:49;13.20;99.90
30694;DHT22;17446;48.022;-1.740;2022-12-29T13:00:20;13.30;99.90
30694;DHT22;17446;48.022;-1.740;2022-12-29T13:16:37;13.70;99.90
30694;DHT22;17446;48.022;-1.740;2022-12-29T13:19:08;13.60;99.90
30694;DHT22;17446;48.022;-1.740;2022-12-29T13:30:22;12.90;99.90
30694;DHT22;17446;48.022;-1.740;2022-12-29T13:35:46;12.90;99.90
30694;DHT22;17446;48.022;-1.740;2022-12-29T13:40:55;12.90;99.90
30694;DHT22;17446;48.022;-1.740;2022-12-29T13:43:22;12.70;99.90
30694;DHT22;17446;48.022;-1.740;2022-12-29T13:45:58;12.60;99.90
30694;DHT22;17446;48.022;-1.740;2022-12-29T13:49:19;12.50;99.90
30694;DHT22;17446;48.022;-1.740;2022-12-29T13:51:53;12.40;99.90
30694;DHT22;17446;48.022;-1.740;2022-12-29T13:54:39;12.40;99.90
30694;DHT22;17446;48.022;-1.740;2022-12-29T14:00:02;12.30;99.90
30694;DHT22;17446;48.022;-1.740;2022-12-29T14:07:49;12.10;99.90
30694;DHT22;17446;48.022;-1.740;2022-12-29T14:10:31;12.10;99.90
30694;DHT22;17446;48.022;-1.740;2022-12-29T14:15:39;12.10;99.90
30694;DHT22;17446;48.022;-1.740;2022-12-29T14:18:18;12.20;99.90
30694;DHT22;17446;48.022;-1.740;2022-12-29T14:20:54;12.30;99.90
30694;DHT22;17446;48.022;-1.740;2022-12-29T14:23:39;12.40;99.90
30694;DHT22;17446;48.022;-1.740;2022-12-29T14:34:14;12.50;99.90
30694;DHT22;17446;48.022;-1.740;2022-12-29T14:38:59;12.50;99.90
30694;DHT22;17446;48.022;-1.740;2022-12-29T14:41:29;12.50;99.90
30694;DHT22;17446;48.022;-1.740;2022-12-29T14:44:02;12.50;99.90
30694;DHT22;17446;48.022;-1.740;2022-12-29T14:49:21;12.30;99.90
30694;DHT22;17446;48.022;-1.740;2022-12-29T14:51:50;12.30;99.90
30694;DHT22;17446;48.022;-1.740;2022-12-29T14:54:46;12.20;99.90
30694;DHT22;17446;48.022;-1.740;2022-12-29T14:57:22;12.20;99.90
30694;DHT22;17446;48.022;-1.740;2022-12-29T14:59:53;12.20;99.90
30694;DHT22;17446;48.022;-1.740;2022-12-29T15:02:22;12.10;99.90
30694;DHT22;17446;48.022;-1.740;2022-12-29T15:04:48;12.10;99.90
30694;DHT22;17446;48.022;-1.740;2022-12-29T15:07:15;12.10;99.90
30694;DHT22;17446;48.022;-1.740;2022-12-29T15:09:46;12.10;99.90
30694;DHT22;17446;48.022;-1.740;2022-12-29T15:14:50;12.10;99.90
30694;DHT22;17446;48.022;-1.740;2022-12-29T15:17:31;12.20;99.90
30694;DHT22;17446;48.022;-1.740;2022-12-29T15:20:00;12.20;99.90
30694;DHT22;17446;48.022;-1.740;2022-12-29T15:22:26;12.30;99.90
30694;DHT22;17446;48.022;-1.740;2022-12-29T15:24:53;12.30;99.90
30694;DHT22;17446;48.022;-1.740;2022-12-29T15:27:22;12.40;99.90
30694;DHT22;17446;48.022;-1.740;2022-12-29T15:29:48;12.40;99.90
30694;DHT22;17446;48.022;-1.740;2022-12-29T15:32:28;12.40;99.90
30694;DHT22;17446;48.022;-1.740;2022-12-29T15:34:56;12.30;99.90
30694;DHT22;17446;48.022;-1.740;2022-12-29T15:39:48;12.30;99.90
30694;DHT22;17446;48.022;-1.740;2022-12-29T15:42:23;12.30;99.90
30694;DHT22;17446;48.022;-1.740;2022-12-29T15:44:52;12.30;99.90
30694;DHT22;17446;48.022;-1.740;2022-12-29T15:47:22;12.30;99.90
30694;DHT22;17446;48.022;-1.740;2022-12-29T15:49:52;12.30;99.90
30694;DHT22;17446;48.022;-1.740;2022-12-29T15:52:23;12.30;99.90
30694;DHT22;17446;48.022;-1.740;2022-12-29T15:54:51;12.20;99.90
30694;DHT22;17446;48.022;-1.740;2022-12-29T15:57:23;12.20;99.90
30694;DHT22;17446;48.022;-1.740;2022-12-29T15:59:49;12.20;99.90
30694;DHT22;17446;48.022;-1.740;2022-12-29T16:02:15;12.20;99.90
30694;DHT22;17446;48.022;-1.740;2022-12-29T16:04:41;12.10;99.90
30694;DHT22;17446;48.022;-1.740;2022-12-29T16:07:32;12.10;99.90
30694;DHT22;17446;48.022;-1.740;2022-12-29T16:10:00;12.10;99.90
30694;DHT22;17446;48.022;-1.740;2022-12-29T16:12:34;12.00;99.90
30694;DHT22;17446;48.022;-1.740;2022-12-29T16:15:20;11.90;99.90
30694;DHT22;17446;48.022;-1.740;2022-12-29T16:17:48;11.80;99.90
30694;DHT22;17446;48.022;-1.740;2022-12-29T16:20:19;11.70;99.90
30694;DHT22;17446;48.022;-1.740;2022-12-29T16:22:56;11.60;99.90
30694;DHT22;17446;48.022;-1.740;2022-12-29T16:25:27;11.60;99.90
30694;DHT22;17446;48.022;-1.740;2022-12-29T16:27:54;11.50;99.90
30694;DHT22;17446;48.022;-1.740;2022-12-29T16:30:32;11.40;99.90
30694;DHT22;17446;48.022;-1.740;2022-12-29T16:33:00;11.30;99.90
30694;DHT22;17446;48.022;-1.740;2022-12-29T16:35:44;11.20;99.90
30694;DHT22;17446;48.022;-1.740;2022-12-29T16:38:21;11.20;99.90
30694;DHT22;17446;48.022;-1.740;2022-12-29T16:40:59;11.10;99.90
30694;DHT22;17446;48.022;-1.740;2022-12-29T16:43:32;11.00;99.90
30694;DHT22;17446;48.022;-1.740;2022-12-29T16:48:26;10.90;99.90
30694;DHT22;17446;48.022;-1.740;2022-12-29T16:51:04;10.80;99.90
30694;DHT22;17446;48.022;-1.740;2022-12-29T16:53:39;10.70;99.90
30694;DHT22;17446;48.022;-1.740;2022-12-29T16:56:09;10.70;99.90
30694;DHT22;17446;48.022;-1.740;2022-12-29T16:58:38;10.60;99.90
30694;DHT22;17446;48.022;-1.740;2022-12-29T17:01:06;10.50;99.90
30694;DHT22;17446;48.022;-1.740;2022-12-29T17:03:44;10.50;99.90
30694;DHT22;17446;48.022;-1.740;2022-12-29T17:06:15;10.40;99.90
30694;DHT22;17446;48.022;-1.740;2022-12-29T17:08:41;10.40;99.90
30694;DHT22;17446;48.022;-1.740;2022-12-29T17:14:09;10.30;99.90
30694;DHT22;17446;48.022;-1.740;2022-12-29T17:16:36;10.30;99.90
30694;DHT22;17446;48.022;-1.740;2022-12-29T17:19:02;10.20;99.90
30694;DHT22;17446;48.022;-1.740;2022-12-29T17:21:27;10.20;99.90
30694;DHT22;17446;48.022;-1.740;2022-12-29T17:23:53;10.20;99.90
30694;DHT22;17446;48.022;-1.740;2022-12-29T17:26:19;10.10;99.90
30694;DHT22;17446;48.022;-1.740;2022-12-29T17:28:45;10.10;99.90
30694;DHT22;17446;48.022;-1.740;2022-12-29T17:31:11;10.10;99.90
30694;DHT22;17446;48.022;-1.740;2022-12-29T17:33:38;10.00;99.90
30694;DHT22;17446;48.022;-1.740;2022-12-29T17:36:04;10.00;99.90
30694;DHT22;17446;48.022;-1.740;2022-12-29T17:38:33;10.00;99.90
30694;DHT22;17446;48.022;-1.740;2022-12-29T17:40:59;10.00;99.90
30694;DHT22;17446;48.022;-1.740;2022-12-29T17:43:25;10.00;99.90
30694;DHT22;17446;48.022;-1.740;2022-12-29T17:45:56;9.90;99.90
30694;DHT22;17446;48.022;-1.740;2022-12-29T17:48:23;9.90;99.90
30694;DHT22;17446;48.022;-1.740;2022-12-29T17:50:51;9.80;99.90
30694;DHT22;17446;48.022;-1.740;2022-12-29T17:53:22;9.80;99.90
30694;DHT22;17446;48.022;-1.740;2022-12-29T17:55:48;9.70;99.90
30694;DHT22;17446;48.022;-1.740;2022-12-29T18:00:53;9.70;99.90
30694;DHT22;17446;48.022;-1.740;2022-12-29T18:03:38;9.60;99.90
30694;DHT22;17446;48.022;-1.740;2022-12-29T18:06:05;9.60;99.90
30694;DHT22;17446;48.022;-1.740;2022-12-29T18:08:34;9.60;99.90
30694;DHT22;17446;48.022;-1.740;2022-12-29T18:11:00;9.50;99.90
30694;DHT22;17446;48.022;-1.740;2022-12-29T18:13:28;9.50;99.90
30694;DHT22;17446;48.022;-1.740;2022-12-29T18:15:55;9.50;99.90
30694;DHT22;17446;48.022;-1.740;2022-12-29T18:18:23;9.50;99.90